Mogadishu, Somalia
Current Conditions -  °F | °C
As of 8:55 PM on Wednesday 26 Nov 2014 (Local Time) from KQVF Reporting Station
Clear Clear  
Wind Chill: 82°   Ceiling: Unl
Heat Index: 88°   Visibility: 6mi
Dew Point: 76°   Wind: 1mph
Humidity: 82%   Direction: NA
Pressure: 29.88"   Gusts: NA
Location:  2.05°N, 45.33°E
Report Text: KQVF 261755Z AUTO VRB01KT 9999 CLR 28/24 A2988 RMK AO2 SLP117 T02760242 10336 20273 53024
Loading
Personal Weather Stations






























Interactive Weather Map New forecast layout! Learn more

10-Day Weather Forecast

Advertisements
Track Severe Weather on mobile